Ginys del Meteocat

Dades de l'estació automàtica Sant Martí Sarroca

?
?
Resum diari 22:30 TU
Dades diàries de l'estació meteorològica
Temperatura mitjana 8.6 °C
Temperatura màxima 11.6 °C 12:02 TU
Temperatura mínima 6.0 °C 4:20 TU
Humitat relativa mitjana 89%
Precipitació acumulada 0.1 mm
Ratxa màxima del vent (2 m) 12.2 km/h - 38º 12:16 TU
Irradiació solar global 4.6 MJ/m2

El tram horari està expressat en Temps Universal (TU). Cal sumar una hora en horari d'hivern i dues en horari d'estiu per passar a l'hora oficial.

Sant Martí Sarroca

Metadades estació meteorol´gica
Municipi Sant Martí Sarroca
Comarca Alt Penedès
Altitud 257 m
Data alta 24.05.1997
Estat actual Operativa
Dades de període
Període
TU
TM
°C
TX
°C
TN
°C
HRM
%
PPT
mm
VVM (2 m)
km/h
DVM (2 m)
graus
VVX (2 m)
km/h
RS
W/m2
00:00 - 00:30 6.9 7.2 6.8 90 0.0 3.2 341 6.1 0
00:30 - 01:00 6.7 6.9 6.6 91 0.0 2.5 354 5.8 0
01:00 - 01:30 6.4 6.7 6.2 92 0.0 2.2 14 6.1 0
01:30 - 02:00 6.4 6.5 6.3 93 0.0 3.6 359 6.5 0
02:00 - 02:30 6.5 6.7 6.3 92 0.0 4.0 5 10.1 0
02:30 - 03:00 6.6 6.7 6.5 92 0.0 4.0 348 9.7 0
03:00 - 03:30 6.7 6.9 6.5 91 0.0 4.7 328 9.4 0
03:30 - 04:00 6.7 6.9 6.4 91 0.0 4.0 347 7.2 0
04:00 - 04:30 6.2 6.4 6.0 93 0.0 3.2 355 7.2 0
04:30 - 05:00 6.2 6.3 6.1 93 0.0 4.0 345 8.3 0
05:00 - 05:30 6.3 6.4 6.2 92 0.0 3.2 359 7.2 0
05:30 - 06:00 6.7 6.8 6.3 90 0.0 2.5 13 7.2 0
06:00 - 06:30 6.9 6.9 6.8 90 0.0 2.9 351 7.6 0
06:30 - 07:00 6.8 7.0 6.7 91 0.0 2.9 4 8.6 0
07:00 - 07:30 6.9 7.1 6.8 91 0.0 2.9 2 6.1 3
07:30 - 08:00 6.9 7.2 6.7 92 0.0 2.9 35 5.0 21
08:00 - 08:30 7.1 7.2 7.0 91 0.0 2.5 19 7.2 37
08:30 - 09:00 7.3 7.5 7.1 92 0.1 2.5 30 5.8 52
09:00 - 09:30 7.7 7.9 7.5 91 0.0 1.8 358 5.8 98
09:30 - 10:00 8.3 8.4 7.9 87 0.0 4.0 345 8.3 106
10:00 - 10:30 8.6 8.8 8.4 87 0.0 3.2 350 7.6 63
10:30 - 11:00 9.0 9.4 8.8 86 0.0 2.9 334 8.3 96
11:00 - 11:30 9.9 10.8 9.4 84 0.0 5.0 318 11.2 276
11:30 - 12:00 10.9 11.5 10.6 81 0.0 5.4 352 10.8 382
12:00 - 12:30 11.3 11.6 11.1 80 0.0 5.8 42 12.2 276
12:30 - 13:00 11.1 11.3 11.0 83 0.0 5.4 40 9.4 200
13:00 - 13:30 11.3 11.5 11.1 85 0.0 5.4 71 11.5 199
13:30 - 14:00 11.2 11.5 11.1 85 0.0 4.3 85 9.7 184
14:00 - 14:30 11.3 11.5 11.2 84 0.0 4.7 32 9.0 135
14:30 - 15:00 11.2 11.4 11.1 84 0.0 4.0 47 9.7 114
15:00 - 15:30 11.3 11.3 11.2 82 0.0 5.0 38 12.2 115
15:30 - 16:00 11.4 11.5 11.2 80 0.0 5.0 51 11.9 127
16:00 - 16:30 11.2 11.3 11.1 81 0.0 4.0 42 10.8 76
16:30 - 17:00 10.8 11.0 10.5 84 0.0 2.5 28 6.5 15
17:00 - 17:30 10.2 10.5 9.9 86 0.0 2.9 335 7.6 0
17:30 - 18:00 9.1 9.8 8.7 90 0.0 2.5 353 5.4 0
18:00 - 18:30 8.5 8.7 8.3 93 0.0 2.9 357 6.5 0
18:30 - 19:00 8.5 8.6 8.4 93 0.0 2.9 9 5.8 0
19:00 - 19:30 8.8 9.1 8.4 92 0.0 3.6 338 7.9 0
19:30 - 20:00 8.9 9.0 8.8 92 0.0 3.2 334 7.9 0
20:00 - 20:30 9.1 9.3 8.9 91 0.0 3.6 331 7.9 0
20:30 - 21:00 8.9 9.0 8.8 92 0.0 3.2 348 7.9 0
21:00 - 21:30 9.1 9.3 8.9 92 0.0 2.9 338 5.4 0
21:30 - 22:00 9.4 9.5 9.3 91 0.0 3.2 337 7.2 0
22:00 - 22:30 9.3 9.4 9.2 91 0.0 2.9 350 6.1 0
22:30 - 23:00 9.1 9.2 9.0 92 0.0 2.9 349 7.9 0
23:00 - 23:30 (s/d) (s/d) (s/d) (s/d) (s/d) (s/d) (s/d) (s/d) (s/d)

Les dades en taronja només han passat un control de qualitat automàtic. Resta pendent la seva validació definitiva.